createdAt,value
2018-07-31T00:01:16.853Z,6.53
2018-07-31T00:03:45.313Z,7.40
2018-07-31T00:06:22.507Z,6.73
2018-07-31T00:08:51.986Z,7.00
2018-07-31T00:11:20.850Z,6.63
2018-07-31T00:13:49.351Z,6.47
2018-07-31T00:16:17.936Z,6.60
2018-07-31T00:18:46.482Z,6.63
2018-07-31T00:21:14.962Z,6.70
2018-07-31T00:23:43.458Z,6.97
2018-07-31T00:26:11.942Z,6.37
2018-07-31T00:28:40.463Z,7.10
2018-07-31T00:31:08.621Z,6.63
2018-07-31T00:33:37.099Z,7.00
2018-07-31T00:36:05.597Z,6.90
2018-07-31T00:38:34.178Z,7.20
2018-07-31T00:41:02.660Z,6.93
2018-07-31T00:43:30.857Z,7.10
2018-07-31T00:45:59.651Z,6.87
2018-07-31T00:48:28.156Z,6.93
2018-07-31T00:50:56.669Z,6.93
2018-07-31T00:53:25.230Z,6.70
2018-07-31T00:55:53.688Z,7.50
2018-07-31T00:58:22.194Z,6.50
2018-07-31T01:00:50.671Z,7.20
2018-07-31T01:03:19.184Z,7.30
2018-07-31T01:05:47.679Z,7.10
2018-07-31T01:08:16.290Z,6.90
2018-07-31T01:10:44.775Z,7.13
2018-07-31T01:13:13.296Z,7.10
2018-07-31T01:15:41.799Z,7.83
2018-07-31T01:18:10.315Z,7.53
2018-07-31T01:20:38.780Z,7.17
2018-07-31T01:23:07.282Z,6.63
2018-07-31T01:25:35.774Z,7.33
2018-07-31T01:28:04.288Z,6.77
2018-07-31T01:30:32.765Z,7.37
2018-07-31T01:33:01.306Z,7.33
2018-07-31T01:35:29.812Z,7.03
2018-07-31T01:37:58.301Z,6.40
2018-07-31T01:40:26.740Z,6.50
2018-07-31T01:42:55.244Z,6.33
2018-07-31T01:45:23.711Z,6.93
2018-07-31T01:47:52.224Z,6.40
2018-07-31T01:50:20.711Z,6.20
2018-07-31T01:52:49.203Z,7.10
2018-07-31T01:55:17.671Z,7.03
2018-07-31T01:57:46.703Z,7.13
2018-07-31T02:00:15.519Z,7.13
2018-07-31T02:02:45.460Z,7.50
2018-07-31T02:05:14.014Z,6.90
2018-07-31T02:07:42.514Z,6.77
2018-07-31T02:10:11.044Z,7.27
2018-07-31T02:12:39.648Z,6.50
2018-07-31T02:15:08.515Z,7.27
2018-07-31T02:17:37.050Z,6.83
2018-07-31T02:20:05.599Z,6.87
2018-07-31T02:22:34.054Z,6.80
2018-07-31T02:25:02.622Z,6.87
2018-07-31T02:27:31.094Z,6.67
2018-07-31T02:30:04.824Z,6.90
2018-07-31T02:32:33.272Z,6.33
2018-07-31T02:35:01.759Z,6.80
2018-07-31T02:37:29.923Z,6.53
2018-07-31T02:39:58.378Z,6.97
2018-07-31T02:42:26.883Z,7.30
2018-07-31T02:44:55.359Z,6.73
2018-07-31T02:47:23.928Z,6.50
2018-07-31T02:49:52.353Z,6.83
2018-07-31T02:52:20.845Z,6.67
2018-07-31T02:54:49.412Z,6.83
2018-07-31T02:57:17.896Z,6.60
2018-07-31T02:59:46.361Z,6.73
2018-07-31T03:02:14.844Z,6.87
2018-07-31T03:04:43.631Z,6.93
2018-07-31T03:07:12.148Z,7.00
2018-07-31T03:09:40.584Z,7.13
2018-07-31T03:12:09.066Z,6.70
2018-07-31T03:14:37.512Z,7.33
2018-07-31T03:17:06.047Z,6.73
2018-07-31T03:19:34.522Z,6.70
2018-07-31T03:22:02.982Z,7.23
2018-07-31T03:24:31.776Z,7.27
2018-07-31T03:27:00.277Z,7.30
2018-07-31T03:29:28.726Z,7.83
2018-07-31T03:31:57.239Z,7.97
2018-07-31T03:34:25.998Z,7.53
2018-07-31T03:36:54.559Z,7.37
2018-07-31T03:39:22.975Z,7.70
2018-07-31T03:41:51.466Z,8.13
2018-07-31T03:44:19.935Z,7.70
2018-07-31T03:46:48.409Z,7.43
2018-07-31T03:49:17.008Z,7.60
2018-07-31T03:51:45.515Z,8.30
2018-07-31T03:54:13.969Z,8.17
2018-07-31T03:56:42.830Z,7.80
2018-07-31T03:59:11.334Z,7.43
2018-07-31T04:01:39.846Z,7.50
2018-07-31T04:04:08.638Z,7.67
2018-07-31T04:06:37.327Z,7.90
2018-07-31T04:09:08.906Z,7.90
2018-07-31T04:11:37.544Z,8.27
2018-07-31T04:14:06.058Z,7.77
2018-07-31T04:16:34.518Z,7.57
2018-07-31T04:19:03.067Z,7.80
2018-07-31T04:21:31.667Z,7.87
2018-07-31T04:24:00.210Z,8.10
2018-07-31T04:26:29.523Z,7.50
2018-07-31T04:28:58.006Z,8.27
2018-07-31T04:31:26.439Z,7.70
2018-07-31T04:33:54.926Z,8.27
2018-07-31T04:36:23.365Z,7.97
2018-07-31T04:38:51.847Z,7.73
2018-07-31T04:41:20.353Z,7.77
2018-07-31T04:43:48.979Z,7.00
2018-07-31T04:46:17.471Z,8.00
2018-07-31T04:48:45.967Z,7.73
2018-07-31T04:51:14.406Z,7.93
2018-07-31T04:53:42.999Z,8.40
2018-07-31T04:56:11.439Z,7.80
2018-07-31T04:58:39.875Z,7.90
2018-07-31T05:01:08.344Z,8.13
2018-07-31T05:03:37.139Z,7.97
2018-07-31T05:06:05.663Z,7.77
2018-07-31T05:08:34.077Z,7.43
2018-07-31T05:11:02.274Z,7.57
2018-07-31T05:13:30.901Z,7.70
2018-07-31T05:15:59.366Z,7.83
2018-07-31T05:18:27.920Z,7.37
2018-07-31T05:20:56.904Z,7.67
2018-07-31T05:23:25.392Z,7.97
2018-07-31T05:25:53.881Z,7.00
2018-07-31T05:28:22.364Z,7.53
2018-07-31T05:30:50.845Z,7.57
2018-07-31T05:33:19.649Z,7.60
2018-07-31T05:35:48.112Z,7.17
2018-07-31T05:38:16.567Z,6.70
2018-07-31T05:40:45.073Z,6.97
2018-07-31T05:43:13.523Z,7.10
2018-07-31T05:45:42.302Z,6.90
2018-07-31T05:48:10.773Z,6.67
2018-07-31T05:50:39.202Z,7.20
2018-07-31T05:53:07.683Z,6.73
2018-07-31T05:55:36.108Z,7.07
2018-07-31T05:58:04.604Z,7.70
2018-07-31T06:00:33.052Z,7.90
2018-07-31T06:03:01.585Z,6.90
2018-07-31T06:05:30.016Z,7.60
2018-07-31T06:07:58.470Z,7.13
2018-07-31T06:10:26.944Z,7.43
2018-07-31T06:12:55.787Z,6.90
2018-07-31T06:15:24.145Z,7.30
2018-07-31T06:17:53.015Z,7.10
2018-07-31T06:20:21.698Z,7.77
2018-07-31T06:22:50.556Z,7.13
2018-07-31T06:25:19.705Z,7.47
2018-07-31T06:27:48.236Z,7.30
2018-07-31T06:30:16.661Z,7.23
2018-07-31T06:32:45.156Z,7.60
2018-07-31T06:35:13.767Z,7.17
2018-07-31T06:37:42.234Z,7.40
2018-07-31T06:40:10.370Z,7.03
2018-07-31T06:42:38.868Z,7.03
2018-07-31T06:45:07.686Z,6.90
2018-07-31T06:47:36.163Z,7.30
2018-07-31T06:50:04.927Z,6.90
2018-07-31T06:52:33.398Z,7.90
2018-07-31T06:55:01.836Z,7.43
2018-07-31T06:57:30.315Z,7.37
2018-07-31T06:59:59.336Z,7.37
2018-07-31T07:02:28.385Z,7.28
2018-07-31T07:04:57.392Z,7.72
2018-07-31T07:07:26.404Z,6.95
2018-07-31T07:09:55.378Z,6.92
2018-07-31T07:12:24.441Z,7.10
2018-07-31T07:14:53.422Z,6.65
2018-07-31T07:17:22.452Z,7.00
2018-07-31T07:19:51.480Z,6.80
2018-07-31T07:22:20.506Z,7.20
2018-07-31T07:24:49.496Z,6.40
2018-07-31T07:27:18.551Z,6.78
2018-07-31T07:29:47.617Z,7.08
2018-07-31T07:32:16.648Z,6.30
2018-07-31T07:34:45.616Z,6.37
2018-07-31T07:37:14.619Z,6.70
2018-07-31T07:39:43.603Z,6.45
2018-07-31T07:42:12.969Z,6.85
2018-07-31T07:44:41.956Z,6.45
2018-07-31T07:47:11.238Z,6.17
2018-07-31T07:49:40.243Z,6.97
2018-07-31T07:52:09.592Z,6.47
2018-07-31T07:54:38.579Z,6.42
2018-07-31T07:57:07.640Z,6.30
2018-07-31T07:59:37.232Z,6.15
2018-07-31T08:02:06.322Z,5.92
2018-07-31T08:04:35.508Z,5.85
2018-07-31T08:07:04.844Z,6.05
2018-07-31T08:09:33.906Z,6.05
2018-07-31T08:12:02.972Z,5.80
2018-07-31T08:14:32.043Z,5.53
2018-07-31T08:17:01.072Z,5.45
2018-07-31T08:19:30.087Z,6.00
2018-07-31T08:21:59.103Z,5.95
2018-07-31T08:24:28.128Z,5.58
2018-07-31T08:26:57.166Z,5.83
2018-07-31T08:29:26.148Z,5.45
2018-07-31T08:31:55.171Z,5.60
2018-07-31T08:34:24.236Z,5.60
2018-07-31T08:36:53.439Z,5.33
2018-07-31T08:39:22.425Z,5.60
2018-07-31T08:41:51.465Z,5.78
2018-07-31T08:44:20.451Z,5.60
2018-07-31T08:46:49.810Z,5.50
2018-07-31T08:49:18.794Z,5.65
2018-07-31T08:51:47.865Z,4.90
2018-07-31T08:54:18.523Z,5.90
2018-07-31T08:56:47.609Z,5.47
2018-07-31T08:59:16.787Z,5.12
2018-07-31T09:01:45.811Z,5.65
2018-07-31T09:04:14.820Z,5.47
2018-07-31T09:06:43.867Z,4.78
2018-07-31T09:09:12.876Z,5.00
2018-07-31T09:11:41.866Z,5.70
2018-07-31T09:14:11.243Z,4.78
2018-07-31T09:16:40.250Z,5.37
2018-07-31T09:19:09.300Z,5.28
2018-07-31T09:21:38.634Z,4.72
2018-07-31T09:24:07.731Z,4.42
2018-07-31T09:26:36.431Z,4.40
2018-07-31T09:29:05.166Z,4.33
2018-07-31T09:31:33.849Z,3.60
2018-07-31T09:34:02.594Z,3.90
2018-07-31T09:36:31.348Z,4.23
2018-07-31T09:39:00.227Z,4.50
2018-07-31T09:41:28.957Z,4.70
2018-07-31T09:43:57.699Z,4.07
2018-07-31T09:46:26.395Z,4.43
2018-07-31T09:48:55.122Z,4.37
2018-07-31T09:51:23.822Z,4.50
2018-07-31T09:53:52.570Z,4.07
2018-07-31T09:56:21.502Z,4.47
2018-07-31T09:58:50.252Z,4.40
2018-07-31T10:01:20.094Z,4.30
2018-07-31T10:03:49.630Z,4.50
2018-07-31T10:06:18.450Z,4.83
2018-07-31T10:08:47.238Z,5.03
2018-07-31T10:11:15.967Z,4.70
2018-07-31T10:13:44.730Z,4.60
2018-07-31T10:16:13.437Z,4.80
2018-07-31T10:18:42.220Z,4.50
2018-07-31T10:21:10.925Z,4.97
2018-07-31T10:23:39.721Z,4.67
2018-07-31T10:26:08.450Z,4.83
2018-07-31T10:28:37.209Z,4.97
2018-07-31T10:31:06.522Z,4.97
2018-07-31T10:33:35.246Z,4.60
2018-07-31T10:36:03.967Z,4.20
2018-07-31T10:38:32.719Z,5.00
2018-07-31T10:41:02.007Z,4.80
2018-07-31T10:43:30.745Z,4.63
2018-07-31T10:45:59.652Z,4.77
2018-07-31T10:48:28.757Z,4.50
2018-07-31T10:50:57.477Z,4.60
2018-07-31T10:53:26.925Z,4.83
2018-07-31T10:55:55.979Z,4.67
2018-07-31T10:58:24.802Z,5.20
2018-07-31T11:00:53.843Z,4.60
2018-07-31T11:03:22.934Z,4.80
2018-07-31T11:05:51.732Z,4.87
2018-07-31T11:08:20.468Z,4.27
2018-07-31T11:10:49.199Z,4.80
2018-07-31T11:13:17.993Z,4.70
2018-07-31T11:15:46.904Z,5.00
2018-07-31T11:18:15.935Z,5.33
2018-07-31T11:20:44.673Z,5.40
2018-07-31T11:23:13.418Z,4.97
2018-07-31T11:25:42.155Z,4.70
2018-07-31T11:28:10.948Z,4.73
2018-07-31T11:30:39.971Z,5.00
2018-07-31T11:33:09.076Z,5.42
2018-07-31T11:35:37.938Z,5.20
2018-07-31T11:38:07.187Z,4.83
2018-07-31T11:40:35.931Z,4.87
2018-07-31T11:43:05.000Z,4.83
2018-07-31T11:45:33.695Z,4.83
2018-07-31T11:48:02.410Z,4.83
2018-07-31T11:50:31.351Z,4.83
2018-07-31T11:53:00.112Z,4.43
2018-07-31T11:55:28.839Z,5.27
2018-07-31T11:57:57.600Z,4.77
2018-07-31T12:00:26.636Z,4.83
2018-07-31T12:02:55.846Z,4.60
2018-07-31T12:05:24.889Z,4.90
2018-07-31T12:07:53.626Z,4.80
2018-07-31T12:10:22.372Z,4.70
2018-07-31T12:12:51.101Z,4.47
2018-07-31T12:15:19.818Z,4.77
2018-07-31T12:17:48.817Z,4.17
2018-07-31T12:20:17.538Z,4.97
2018-07-31T12:22:46.294Z,4.53
2018-07-31T12:25:15.050Z,4.73
2018-07-31T12:27:43.787Z,4.87
2018-07-31T12:30:12.492Z,4.40
2018-07-31T12:32:41.749Z,4.67
2018-07-31T12:35:10.945Z,4.90
2018-07-31T12:37:40.451Z,4.60
2018-07-31T12:40:09.202Z,4.90
2018-07-31T12:42:37.938Z,4.87
2018-07-31T12:45:06.643Z,5.37
2018-07-31T12:47:35.397Z,4.60
2018-07-31T12:50:04.590Z,4.70
2018-07-31T12:52:33.509Z,4.47
2018-07-31T12:55:02.240Z,4.40
2018-07-31T12:57:30.983Z,5.10
2018-07-31T12:59:59.801Z,4.70
2018-07-31T13:02:28.696Z,4.70
2018-07-31T13:04:57.398Z,4.33
2018-07-31T13:07:26.508Z,4.50
2018-07-31T13:09:55.228Z,4.20
2018-07-31T13:12:23.983Z,4.50
2018-07-31T13:14:52.995Z,4.60
2018-07-31T13:17:21.795Z,4.50
2018-07-31T13:19:50.527Z,4.03
2018-07-31T13:22:19.447Z,4.40
2018-07-31T13:24:48.437Z,4.27
2018-07-31T13:27:17.228Z,4.67
2018-07-31T13:29:46.192Z,4.37
2018-07-31T13:32:15.036Z,4.20
2018-07-31T13:34:43.760Z,4.47
2018-07-31T13:37:12.525Z,4.57
2018-07-31T13:39:41.405Z,4.40
2018-07-31T13:42:10.185Z,4.43
2018-07-31T13:44:39.131Z,4.27
2018-07-31T13:47:07.866Z,4.20
2018-07-31T13:49:36.576Z,4.80
2018-07-31T13:52:06.015Z,4.60
2018-07-31T13:54:34.727Z,4.90
2018-07-31T13:57:03.459Z,4.50
2018-07-31T13:59:32.207Z,4.60
2018-07-31T14:02:00.908Z,4.80
2018-07-31T14:04:29.666Z,4.33
2018-07-31T14:06:58.590Z,4.60
2018-07-31T14:09:27.499Z,4.60
2018-07-31T14:11:56.211Z,4.80
2018-07-31T14:14:24.938Z,4.13
2018-07-31T14:16:53.731Z,4.50
2018-07-31T14:19:22.490Z,4.40
2018-07-31T14:21:51.218Z,3.90
2018-07-31T14:24:19.946Z,4.40
2018-07-31T14:26:48.824Z,4.23
2018-07-31T14:29:17.547Z,4.40
2018-07-31T14:31:46.249Z,3.90
2018-07-31T14:34:15.012Z,4.30
2018-07-31T14:36:50.291Z,4.47
2018-07-31T14:39:19.948Z,4.33
2018-07-31T14:41:49.329Z,4.20
2018-07-31T14:44:18.894Z,4.60
2018-07-31T14:46:48.362Z,4.40
2018-07-31T14:49:18.250Z,4.43
2018-07-31T14:51:47.730Z,4.27
2018-07-31T14:54:18.272Z,4.10
2018-07-31T14:56:48.275Z,4.07
2018-07-31T14:59:18.739Z,4.10
2018-07-31T15:01:48.442Z,4.10
2018-07-31T15:04:18.162Z,4.10
2018-07-31T15:06:48.139Z,4.13
2018-07-31T15:09:18.046Z,3.83
2018-07-31T15:11:48.064Z,3.93
2018-07-31T15:14:17.702Z,4.20
2018-07-31T15:16:47.333Z,4.37
2018-07-31T15:19:17.329Z,3.80
2018-07-31T15:21:47.514Z,3.93
2018-07-31T15:24:17.104Z,4.63
2018-07-31T15:26:45.848Z,4.47
2018-07-31T15:29:14.682Z,4.10
2018-07-31T15:31:43.376Z,4.40
2018-07-31T15:34:12.212Z,4.00
2018-07-31T15:36:40.918Z,3.70
2018-07-31T15:39:12.203Z,4.80
2018-07-31T15:41:41.259Z,3.90
2018-07-31T15:44:11.458Z,3.90
2018-07-31T15:46:40.239Z,4.53
2018-07-31T15:49:09.031Z,4.30
2018-07-31T15:51:37.744Z,4.60
2018-07-31T15:54:06.919Z,4.27
2018-07-31T15:56:36.161Z,4.10
2018-07-31T15:59:05.306Z,4.27
2018-07-31T16:01:34.015Z,4.30
2018-07-31T16:04:02.775Z,4.20
2018-07-31T16:06:31.677Z,4.40
2018-07-31T16:09:00.487Z,4.20
2018-07-31T16:11:29.246Z,4.00
2018-07-31T16:13:58.015Z,4.10
2018-07-31T16:16:26.768Z,4.40
2018-07-31T16:18:55.494Z,3.93
2018-07-31T16:21:24.215Z,4.30
2018-07-31T16:23:52.947Z,3.67
2018-07-31T16:26:22.095Z,3.80
2018-07-31T16:28:50.818Z,4.37
2018-07-31T16:31:19.527Z,4.03
2018-07-31T16:33:48.266Z,4.30
2018-07-31T16:36:17.002Z,3.80
2018-07-31T16:38:45.875Z,3.90
2018-07-31T16:41:14.630Z,4.13
2018-07-31T16:43:43.404Z,3.90
2018-07-31T16:46:12.131Z,3.60
2018-07-31T16:48:40.876Z,3.60
2018-07-31T16:51:09.972Z,4.10
2018-07-31T16:53:38.688Z,4.60
2018-07-31T16:56:07.776Z,4.43
2018-07-31T16:58:36.482Z,4.43
2018-07-31T17:01:05.219Z,4.00
2018-07-31T17:03:33.921Z,3.97
2018-07-31T17:06:02.656Z,3.77
2018-07-31T17:08:31.372Z,4.17
2018-07-31T17:11:00.135Z,4.20
2018-07-31T17:13:29.191Z,3.75
2018-07-31T17:15:57.991Z,3.83
2018-07-31T17:18:27.392Z,4.10
2018-07-31T17:20:56.135Z,3.80
2018-07-31T17:23:24.866Z,4.30
2018-07-31T17:25:53.919Z,4.30
2018-07-31T17:28:22.914Z,4.03
2018-07-31T17:30:52.002Z,4.60
2018-07-31T17:33:20.980Z,4.30
2018-07-31T17:35:50.014Z,4.65
2018-07-31T17:38:19.286Z,3.95
2018-07-31T17:40:48.305Z,4.37
2018-07-31T17:43:17.287Z,5.53
2018-07-31T17:45:46.325Z,7.10
2018-07-31T17:48:15.331Z,6.85
2018-07-31T17:50:44.759Z,4.65
2018-07-31T17:53:13.811Z,8.83
2018-07-31T17:55:42.860Z,6.78
2018-07-31T17:58:12.149Z,6.60
2018-07-31T18:00:41.272Z,5.87
2018-07-31T18:03:10.254Z,5.00
2018-07-31T18:05:39.634Z,4.85
2018-07-31T18:08:08.629Z,5.25
2018-07-31T18:10:37.652Z,4.60
2018-07-31T18:13:06.647Z,4.80
2018-07-31T18:15:35.682Z,4.30
2018-07-31T18:18:04.702Z,4.42
2018-07-31T18:20:33.731Z,4.20
2018-07-31T18:23:03.085Z,4.55
2018-07-31T18:25:32.406Z,4.17
2018-07-31T18:28:01.469Z,4.35
2018-07-31T18:30:30.629Z,4.53
2018-07-31T18:32:59.775Z,4.50
2018-07-31T18:35:28.824Z,4.35
2018-07-31T18:37:57.803Z,4.03
2018-07-31T18:40:26.832Z,4.37
2018-07-31T18:42:56.203Z,4.05
2018-07-31T18:45:25.584Z,4.22
2018-07-31T18:47:55.782Z,4.80
2018-07-31T18:50:24.873Z,4.30
2018-07-31T18:52:53.988Z,4.80
2018-07-31T18:55:23.314Z,4.95
2018-07-31T18:57:53.022Z,4.10
2018-07-31T19:00:22.084Z,4.60
2018-07-31T19:02:51.130Z,4.42
2018-07-31T19:05:21.318Z,6.10
2018-07-31T19:07:50.855Z,4.90
2018-07-31T19:10:20.711Z,4.42
2018-07-31T19:12:50.967Z,4.08
2018-07-31T19:15:22.764Z,4.10
2018-07-31T19:17:52.040Z,4.85
2018-07-31T19:20:21.916Z,5.22
2018-07-31T19:22:51.078Z,5.05
2018-07-31T19:25:20.911Z,4.80
2018-07-31T19:27:50.658Z,5.75
2018-07-31T19:30:19.895Z,5.12
2018-07-31T19:32:49.756Z,6.10
2018-07-31T19:35:19.922Z,5.92
2018-07-31T19:37:48.909Z,5.83
2018-07-31T19:40:19.537Z,5.55
2018-07-31T19:42:48.635Z,5.05
2018-07-31T19:45:18.232Z,6.55
2018-07-31T19:47:47.353Z,5.78
2018-07-31T19:50:17.147Z,6.33
2018-07-31T19:52:46.650Z,5.55
2018-07-31T19:55:15.767Z,5.22
2018-07-31T19:57:46.129Z,5.80
2018-07-31T20:00:15.254Z,5.67
2018-07-31T20:02:45.622Z,5.37
2018-07-31T20:05:16.209Z,5.28
2018-07-31T20:07:45.448Z,5.22
2018-07-31T20:10:14.629Z,5.17
2018-07-31T20:12:43.646Z,5.12
2018-07-31T20:15:13.132Z,5.05
2018-07-31T20:17:43.275Z,5.03
2018-07-31T20:20:12.732Z,5.00
2018-07-31T20:22:41.854Z,5.50
2018-07-31T20:25:11.222Z,5.22
2018-07-31T20:27:40.969Z,5.58
2018-07-31T20:30:12.061Z,5.10
2018-07-31T20:32:41.325Z,5.53
2018-07-31T20:35:12.383Z,5.20
2018-07-31T20:37:42.286Z,4.83
2018-07-31T20:40:11.653Z,5.15
2018-07-31T20:42:41.416Z,5.03
2018-07-31T20:45:12.497Z,5.40
2018-07-31T20:47:43.964Z,4.70
2018-07-31T20:50:15.620Z,4.62
2018-07-31T20:52:45.401Z,5.22
2018-07-31T20:55:17.723Z,5.17
2018-07-31T20:57:46.831Z,5.00
2018-07-31T21:00:15.905Z,6.15
2018-07-31T21:02:45.494Z,5.83
2018-07-31T21:05:20.884Z,5.30
2018-07-31T21:07:51.236Z,5.53
2018-07-31T21:10:20.900Z,5.30
2018-07-31T21:12:51.015Z,5.20
2018-07-31T21:15:19.735Z,4.92
2018-07-31T21:17:48.834Z,4.55
2018-07-31T21:20:18.149Z,4.95
2018-07-31T21:22:47.374Z,4.35
2018-07-31T21:25:16.504Z,5.45
2018-07-31T21:27:45.714Z,5.10
2018-07-31T21:30:16.011Z,5.40
2018-07-31T21:32:45.245Z,5.47
2018-07-31T21:35:15.467Z,5.50
2018-07-31T21:37:45.112Z,5.62
2018-07-31T21:40:14.710Z,6.05
2018-07-31T21:42:43.738Z,6.37
2018-07-31T21:45:12.824Z,6.30
2018-07-31T21:47:42.311Z,6.05
2018-07-31T21:50:11.000Z,5.90
2018-07-31T21:52:40.078Z,5.70
2018-07-31T21:55:08.663Z,5.50
2018-07-31T21:57:37.150Z,5.70
2018-07-31T22:00:07.078Z,5.30
2018-07-31T22:02:35.583Z,5.70
2018-07-31T22:05:04.765Z,5.80
2018-07-31T22:07:33.272Z,6.10
2018-07-31T22:10:02.288Z,6.17
2018-07-31T22:12:30.849Z,6.00
2018-07-31T22:14:59.355Z,5.50
2018-07-31T22:17:27.994Z,5.83
2018-07-31T22:19:57.892Z,6.10
2018-07-31T22:22:26.395Z,6.77
2018-07-31T22:24:54.884Z,5.87
2018-07-31T22:27:23.539Z,6.57
2018-07-31T22:29:51.991Z,6.13
2018-07-31T22:32:20.481Z,6.40
2018-07-31T22:34:48.928Z,6.33
2018-07-31T22:37:17.477Z,5.50
2018-07-31T22:39:45.920Z,5.40
2018-07-31T22:42:14.432Z,5.97
2018-07-31T22:44:42.871Z,5.93
2018-07-31T22:47:11.468Z,5.73
2018-07-31T22:49:39.956Z,5.90
2018-07-31T22:52:08.436Z,6.10
2018-07-31T22:54:36.923Z,5.70
2018-07-31T22:57:05.376Z,6.60
2018-07-31T22:59:33.546Z,6.00
2018-07-31T23:02:02.007Z,5.93
2018-07-31T23:04:30.545Z,5.83
2018-07-31T23:06:59.014Z,6.40
2018-07-31T23:09:27.559Z,6.70
2018-07-31T23:11:56.059Z,6.23
2018-07-31T23:14:24.600Z,5.97
2018-07-31T23:16:53.075Z,6.70
2018-07-31T23:19:21.591Z,6.70
2018-07-31T23:21:50.075Z,6.43
2018-07-31T23:24:18.607Z,6.23
2018-07-31T23:26:47.053Z,6.03
2018-07-31T23:29:15.555Z,5.97
2018-07-31T23:31:43.993Z,6.97
2018-07-31T23:34:12.483Z,6.40
2018-07-31T23:36:40.940Z,6.17
2018-07-31T23:39:10.902Z,6.37
2018-07-31T23:41:39.779Z,6.53
2018-07-31T23:44:09.076Z,6.37
2018-07-31T23:46:38.051Z,6.57
2018-07-31T23:49:06.222Z,7.20
2018-07-31T23:51:34.758Z,6.73
2018-07-31T23:54:03.291Z,6.57
2018-07-31T23:56:31.456Z,6.70
2018-07-31T23:59:00.015Z,7.50
